sensor_id;sensor_type;location;lat;lon;timestamp;P1;P2;P0
65556;PMS3003;52200;53.490;14.376;2022-08-21T00:01:45;10.25;6.25;3.25
65556;PMS3003;52200;53.490;14.376;2022-08-21T00:04:11;10.75;6.25;3.75
65556;PMS3003;52200;53.490;14.376;2022-08-21T00:06:37;12.20;7.20;4.80
65556;PMS3003;52200;53.490;14.376;2022-08-21T00:09:03;11.00;6.40;3.40
65556;PMS3003;52200;53.490;14.376;2022-08-21T00:11:30;11.80;8.00;5.00
65556;PMS3003;52200;53.490;14.376;2022-08-21T00:13:55;10.00;5.00;3.00
65556;PMS3003;52200;53.490;14.376;2022-08-21T00:16:21;13.50;6.75;4.00
65556;PMS3003;52200;53.490;14.376;2022-08-21T00:18:46;14.25;9.00;4.00
65556;PMS3003;52200;53.490;14.376;2022-08-21T00:21:12;11.00;6.25;3.00
65556;PMS3003;52200;53.490;14.376;2022-08-21T00:23:38;10.80;5.60;2.80
65556;PMS3003;52200;53.490;14.376;2022-08-21T00:26:04;10.25;6.75;3.50
65556;PMS3003;52200;53.490;14.376;2022-08-21T00:28:30;9.00;5.00;2.00
65556;PMS3003;52200;53.490;14.376;2022-08-21T00:30:56;9.00;4.60;2.60
65556;PMS3003;52200;53.490;14.376;2022-08-21T00:33:22;9.20;5.20;3.00
65556;PMS3003;52200;53.490;14.376;2022-08-21T00:35:48;9.60;5.20;2.80
65556;PMS3003;52200;53.490;14.376;2022-08-21T00:38:14;8.75;5.75;2.25
65556;PMS3003;52200;53.490;14.376;2022-08-21T00:43:05;10.25;7.25;4.00
65556;PMS3003;52200;53.490;14.376;2022-08-21T00:45:33;9.40;5.60;3.20
65556;PMS3003;52200;53.490;14.376;2022-08-21T00:47:59;10.75;7.25;4.00
65556;PMS3003;52200;53.490;14.376;2022-08-21T00:50:26;10.75;6.00;4.00
65556;PMS3003;52200;53.490;14.376;2022-08-21T00:52:56;10.40;5.40;3.20
65556;PMS3003;52200;53.490;14.376;2022-08-21T00:55:22;7.80;4.60;2.80
65556;PMS3003;52200;53.490;14.376;2022-08-21T00:57:49;9.60;5.20;3.00
65556;PMS3003;52200;53.490;14.376;2022-08-21T01:00:21;8.80;5.00;2.80
65556;PMS3003;52200;53.490;14.376;2022-08-21T01:02:54;9.80;6.80;3.20
65556;PMS3003;52200;53.490;14.376;2022-08-21T01:05:20;8.80;5.40;3.80
65556;PMS3003;52200;53.490;14.376;2022-08-21T01:07:45;10.00;5.00;3.00
65556;PMS3003;52200;53.490;14.376;2022-08-21T01:10:11;8.50;5.00;3.00
65556;PMS3003;52200;53.490;14.376;2022-08-21T01:12:37;8.60;4.00;2.20
65556;PMS3003;52200;53.490;14.376;2022-08-21T01:15:07;9.00;4.40;2.60
65556;PMS3003;52200;53.490;14.376;2022-08-21T01:17:33;7.80;4.40;2.40
65556;PMS3003;52200;53.490;14.376;2022-08-21T01:20:01;8.20;4.00;2.00
65556;PMS3003;52200;53.490;14.376;2022-08-21T01:22:29;11.40;6.00;3.00
65556;PMS3003;52200;53.490;14.376;2022-08-21T01:24:54;10.25;5.00;3.00
65556;PMS3003;52200;53.490;14.376;2022-08-21T01:27:20;10.75;6.00;3.50
65556;PMS3003;52200;53.490;14.376;2022-08-21T01:29:51;11.40;5.60;3.40
65556;PMS3003;52200;53.490;14.376;2022-08-21T01:32:22;9.20;5.00;2.20
65556;PMS3003;52200;53.490;14.376;2022-08-21T01:34:48;9.60;5.00;2.60
65556;PMS3003;52200;53.490;14.376;2022-08-21T01:37:15;10.00;5.60;2.00
65556;PMS3003;52200;53.490;14.376;2022-08-21T01:39:42;12.40;6.00;3.00
65556;PMS3003;52200;53.490;14.376;2022-08-21T01:42:08;9.40;5.40;2.80
65556;PMS3003;52200;53.490;14.376;2022-08-21T01:44:34;11.40;5.80;4.00
65556;PMS3003;52200;53.490;14.376;2022-08-21T01:47:03;10.80;6.40;3.40
65556;PMS3003;52200;53.490;14.376;2022-08-21T01:49:32;10.20;6.80;3.80
65556;PMS3003;52200;53.490;14.376;2022-08-21T01:51:58;10.60;6.60;3.00
65556;PMS3003;52200;53.490;14.376;2022-08-21T01:54:24;9.25;5.25;3.00
65556;PMS3003;52200;53.490;14.376;2022-08-21T01:56:51;8.80;5.40;3.40
65556;PMS3003;52200;53.490;14.376;2022-08-21T01:59:18;10.80;6.00;3.20
65556;PMS3003;52200;53.490;14.376;2022-08-21T02:01:45;11.60;6.80;3.80
65556;PMS3003;52200;53.490;14.376;2022-08-21T02:04:10;9.00;5.25;3.00
65556;PMS3003;52200;53.490;14.376;2022-08-21T02:06:36;9.80;5.00;3.00
65556;PMS3003;52200;53.490;14.376;2022-08-21T02:09:03;9.40;6.00;2.60
65556;PMS3003;52200;53.490;14.376;2022-08-21T02:11:31;11.80;6.60;3.60
65556;PMS3003;52200;53.490;14.376;2022-08-21T02:13:57;10.60;5.00;3.00
65556;PMS3003;52200;53.490;14.376;2022-08-21T02:16:22;10.50;5.50;3.00
65556;PMS3003;52200;53.490;14.376;2022-08-21T02:18:48;8.00;5.00;3.00
65556;PMS3003;52200;53.490;14.376;2022-08-21T02:21:13;12.25;7.25;3.00
65556;PMS3003;52200;53.490;14.376;2022-08-21T02:23:39;10.00;6.00;4.00
65556;PMS3003;52200;53.490;14.376;2022-08-21T02:26:05;10.25;6.00;2.75
65556;PMS3003;52200;53.490;14.376;2022-08-21T02:28:31;11.20;7.20;3.20
65556;PMS3003;52200;53.490;14.376;2022-08-21T02:30:59;9.00;4.80;2.60
65556;PMS3003;52200;53.490;14.376;2022-08-21T02:33:25;11.25;7.75;3.00
65556;PMS3003;52200;53.490;14.376;2022-08-21T02:35:50;11.20;6.40;3.60
65556;PMS3003;52200;53.490;14.376;2022-08-21T02:38:18;8.40;4.80;3.40
65556;PMS3003;52200;53.490;14.376;2022-08-21T02:40:47;10.00;5.60;3.80
65556;PMS3003;52200;53.490;14.376;2022-08-21T02:43:15;11.20;7.00;3.80
65556;PMS3003;52200;53.490;14.376;2022-08-21T02:45:42;10.60;6.80;3.80
65556;PMS3003;52200;53.490;14.376;2022-08-21T02:48:09;11.60;6.80;3.80
65556;PMS3003;52200;53.490;14.376;2022-08-21T02:50:46;10.80;7.00;2.80
65556;PMS3003;52200;53.490;14.376;2022-08-21T02:53:16;8.00;4.60;2.40
65556;PMS3003;52200;53.490;14.376;2022-08-21T02:55:43;11.20;4.80;3.40
65556;PMS3003;52200;53.490;14.376;2022-08-21T02:58:10;10.80;7.00;3.60
65556;PMS3003;52200;53.490;14.376;2022-08-21T03:00:36;9.75;5.00;3.00
65556;PMS3003;52200;53.490;14.376;2022-08-21T03:03:03;9.00;5.20;3.00
65556;PMS3003;52200;53.490;14.376;2022-08-21T03:05:30;11.40;7.20;3.80
65556;PMS3003;52200;53.490;14.376;2022-08-21T03:07:58;10.20;5.40;3.00
65556;PMS3003;52200;53.490;14.376;2022-08-21T03:10:26;10.40;5.00;3.00
65556;PMS3003;52200;53.490;14.376;2022-08-21T03:12:52;10.00;4.80;2.80
65556;PMS3003;52200;53.490;14.376;2022-08-21T03:15:18;9.00;5.25;3.00
65556;PMS3003;52200;53.490;14.376;2022-08-21T03:17:46;11.40;7.40;3.00
65556;PMS3003;52200;53.490;14.376;2022-08-21T03:20:13;10.20;6.60;3.00
65556;PMS3003;52200;53.490;14.376;2022-08-21T03:22:41;10.80;5.60;3.60
65556;PMS3003;52200;53.490;14.376;2022-08-21T03:25:07;7.40;4.00;2.00
65556;PMS3003;52200;53.490;14.376;2022-08-21T03:27:34;9.00;5.80;3.80
65556;PMS3003;52200;53.490;14.376;2022-08-21T03:30:00;10.00;5.20;2.80
65556;PMS3003;52200;53.490;14.376;2022-08-21T03:32:28;12.60;7.40;4.60
65556;PMS3003;52200;53.490;14.376;2022-08-21T03:34:54;9.00;5.00;3.00
65556;PMS3003;52200;53.490;14.376;2022-08-21T03:37:19;10.50;6.25;4.00
65556;PMS3003;52200;53.490;14.376;2022-08-21T03:39:44;11.75;6.00;4.00
65556;PMS3003;52200;53.490;14.376;2022-08-21T03:42:10;13.75;7.75;4.00
65556;PMS3003;52200;53.490;14.376;2022-08-21T03:44:36;9.40;4.80;2.20
65556;PMS3003;52200;53.490;14.376;2022-08-21T03:47:04;9.20;5.80;4.00
65556;PMS3003;52200;53.490;14.376;2022-08-21T03:49:30;10.40;6.80;4.00
65556;PMS3003;52200;53.490;14.376;2022-08-21T03:51:56;12.00;6.00;4.75
65556;PMS3003;52200;53.490;14.376;2022-08-21T03:54:21;10.25;7.00;4.00
65556;PMS3003;52200;53.490;14.376;2022-08-21T03:56:46;11.00;6.00;3.00
65556;PMS3003;52200;53.490;14.376;2022-08-21T03:59:12;11.00;7.25;3.00
65556;PMS3003;52200;53.490;14.376;2022-08-21T04:01:38;11.60;7.60;4.00
65556;PMS3003;52200;53.490;14.376;2022-08-21T04:04:04;11.00;6.00;3.00
65556;PMS3003;52200;53.490;14.376;2022-08-21T04:06:30;10.20;6.40;3.80
65556;PMS3003;52200;53.490;14.376;2022-08-21T04:08:55;11.75;7.00;4.00
65556;PMS3003;52200;53.490;14.376;2022-08-21T04:11:20;9.75;6.50;3.00
65556;PMS3003;52200;53.490;14.376;2022-08-21T04:13:46;11.25;7.75;4.50
65556;PMS3003;52200;53.490;14.376;2022-08-21T04:16:12;10.75;6.75;4.50
65556;PMS3003;52200;53.490;14.376;2022-08-21T04:18:38;13.00;6.40;2.80
65556;PMS3003;52200;53.490;14.376;2022-08-21T04:21:04;11.75;7.00;4.00
65556;PMS3003;52200;53.490;14.376;2022-08-21T04:23:31;11.80;6.60;4.00
65556;PMS3003;52200;53.490;14.376;2022-08-21T04:25:56;14.00;8.00;4.25
65556;PMS3003;52200;53.490;14.376;2022-08-21T04:28:23;11.40;7.40;4.00
65556;PMS3003;52200;53.490;14.376;2022-08-21T04:30:50;10.00;6.20;3.80
65556;PMS3003;52200;53.490;14.376;2022-08-21T04:33:16;11.60;8.00;5.00
65556;PMS3003;52200;53.490;14.376;2022-08-21T04:35:42;13.75;8.25;4.50
65556;PMS3003;52200;53.490;14.376;2022-08-21T04:38:08;10.25;7.00;4.00
65556;PMS3003;52200;53.490;14.376;2022-08-21T04:40:33;13.25;8.75;4.50
65556;PMS3003;52200;53.490;14.376;2022-08-21T04:43:06;13.75;6.75;4.75
65556;PMS3003;52200;53.490;14.376;2022-08-21T04:45:35;11.00;7.00;3.40
65556;PMS3003;52200;53.490;14.376;2022-08-21T04:48:05;11.80;8.40;4.00
65556;PMS3003;52200;53.490;14.376;2022-08-21T04:50:38;17.60;9.40;6.00
65556;PMS3003;52200;53.490;14.376;2022-08-21T04:53:20;12.20;6.60;3.60
65556;PMS3003;52200;53.490;14.376;2022-08-21T04:55:51;10.20;6.20;3.80
65556;PMS3003;52200;53.490;14.376;2022-08-21T04:58:19;13.00;7.40;4.00
65556;PMS3003;52200;53.490;14.376;2022-08-21T05:00:46;9.00;6.00;3.80
65556;PMS3003;52200;53.490;14.376;2022-08-21T05:03:13;12.00;7.40;4.00
65556;PMS3003;52200;53.490;14.376;2022-08-21T05:05:41;12.40;8.40;4.80
65556;PMS3003;52200;53.490;14.376;2022-08-21T05:08:08;10.80;7.60;4.20
65556;PMS3003;52200;53.490;14.376;2022-08-21T05:10:37;10.80;6.60;4.00
65556;PMS3003;52200;53.490;14.376;2022-08-21T05:13:02;12.00;8.00;4.50
65556;PMS3003;52200;53.490;14.376;2022-08-21T05:15:30;12.80;7.40;4.00
65556;PMS3003;52200;53.490;14.376;2022-08-21T05:17:56;11.40;6.00;3.80
65556;PMS3003;52200;53.490;14.376;2022-08-21T05:20:22;11.25;6.75;3.50
65556;PMS3003;52200;53.490;14.376;2022-08-21T05:22:47;11.00;7.25;5.00
65556;PMS3003;52200;53.490;14.376;2022-08-21T05:25:13;10.25;6.00;3.00
65556;PMS3003;52200;53.490;14.376;2022-08-21T05:27:38;10.00;6.00;4.00
65556;PMS3003;52200;53.490;14.376;2022-08-21T05:30:04;10.50;6.50;3.00
65556;PMS3003;52200;53.490;14.376;2022-08-21T05:32:33;9.00;5.60;4.00
65556;PMS3003;52200;53.490;14.376;2022-08-21T05:34:59;13.20;7.00;5.00
65556;PMS3003;52200;53.490;14.376;2022-08-21T05:37:24;10.25;7.00;3.00
65556;PMS3003;52200;53.490;14.376;2022-08-21T05:39:50;12.25;7.25;4.00
65556;PMS3003;52200;53.490;14.376;2022-08-21T05:42:15;13.50;8.75;5.00
65556;PMS3003;52200;53.490;14.376;2022-08-21T05:44:41;11.75;7.00;4.50
65556;PMS3003;52200;53.490;14.376;2022-08-21T05:47:08;11.00;7.00;4.00
65556;PMS3003;52200;53.490;14.376;2022-08-21T05:49:35;9.40;5.40;3.20
65556;PMS3003;52200;53.490;14.376;2022-08-21T05:52:02;11.80;6.60;3.20
65556;PMS3003;52200;53.490;14.376;2022-08-21T05:54:28;12.40;7.60;4.00
65556;PMS3003;52200;53.490;14.376;2022-08-21T05:56:55;9.80;5.60;4.00
65556;PMS3003;52200;53.490;14.376;2022-08-21T05:59:20;8.50;4.25;2.75
65556;PMS3003;52200;53.490;14.376;2022-08-21T06:01:46;7.00;4.00;2.75
65556;PMS3003;52200;53.490;14.376;2022-08-21T06:04:11;16.25;6.00;3.00
65556;PMS3003;52200;53.490;14.376;2022-08-21T06:06:38;8.80;5.80;2.80
65556;PMS3003;52200;53.490;14.376;2022-08-21T06:09:04;9.00;5.00;3.00
65556;PMS3003;52200;53.490;14.376;2022-08-21T06:11:30;12.20;6.80;3.40
65556;PMS3003;52200;53.490;14.376;2022-08-21T06:13:57;10.20;4.40;2.20
65556;PMS3003;52200;53.490;14.376;2022-08-21T06:16:23;11.40;6.60;3.00
65556;PMS3003;52200;53.490;14.376;2022-08-21T06:18:49;9.75;6.50;3.00
65556;PMS3003;52200;53.490;14.376;2022-08-21T06:21:15;10.80;7.60;3.00
65556;PMS3003;52200;53.490;14.376;2022-08-21T06:23:41;10.00;5.20;3.00
65556;PMS3003;52200;53.490;14.376;2022-08-21T06:26:08;10.00;6.40;3.40
65556;PMS3003;52200;53.490;14.376;2022-08-21T06:28:35;12.20;6.00;3.00
65556;PMS3003;52200;53.490;14.376;2022-08-21T06:31:09;9.60;5.20;3.60
65556;PMS3003;52200;53.490;14.376;2022-08-21T06:33:45;12.00;7.00;4.00
65556;PMS3003;52200;53.490;14.376;2022-08-21T06:36:11;12.00;7.00;4.00
65556;PMS3003;52200;53.490;14.376;2022-08-21T06:38:37;10.00;6.00;4.00
65556;PMS3003;52200;53.490;14.376;2022-08-21T06:41:04;12.00;6.60;2.80
65556;PMS3003;52200;53.490;14.376;2022-08-21T06:43:30;9.00;4.60;3.40
65556;PMS3003;52200;53.490;14.376;2022-08-21T06:45:56;12.00;6.00;3.00
65556;PMS3003;52200;53.490;14.376;2022-08-21T06:48:21;11.00;6.50;4.00
65556;PMS3003;52200;53.490;14.376;2022-08-21T06:50:47;10.75;7.00;3.75
65556;PMS3003;52200;53.490;14.376;2022-08-21T06:53:13;11.00;6.20;2.80
65556;PMS3003;52200;53.490;14.376;2022-08-21T06:55:41;10.60;6.80;3.00
65556;PMS3003;52200;53.490;14.376;2022-08-21T06:58:07;13.50;7.50;4.25
65556;PMS3003;52200;53.490;14.376;2022-08-21T07:00:34;7.80;4.00;2.00
65556;PMS3003;52200;53.490;14.376;2022-08-21T07:03:00;10.80;6.00;3.00
65556;PMS3003;52200;53.490;14.376;2022-08-21T07:05:26;10.00;6.25;2.25
65556;PMS3003;52200;53.490;14.376;2022-08-21T07:07:55;8.60;4.60;2.00
65556;PMS3003;52200;53.490;14.376;2022-08-21T07:10:22;9.40;5.40;3.00
65556;PMS3003;52200;53.490;14.376;2022-08-21T07:12:51;9.60;6.20;4.00
65556;PMS3003;52200;53.490;14.376;2022-08-21T07:15:18;10.20;5.00;3.00
65556;PMS3003;52200;53.490;14.376;2022-08-21T07:17:44;9.75;5.50;3.25
65556;PMS3003;52200;53.490;14.376;2022-08-21T07:20:09;10.25;6.00;3.00
65556;PMS3003;52200;53.490;14.376;2022-08-21T07:22:35;9.00;5.00;1.75
65556;PMS3003;52200;53.490;14.376;2022-08-21T07:25:03;8.80;5.00;3.00
65556;PMS3003;52200;53.490;14.376;2022-08-21T07:27:30;9.00;4.20;2.80
65556;PMS3003;52200;53.490;14.376;2022-08-21T07:29:56;9.00;5.60;3.00
65556;PMS3003;52200;53.490;14.376;2022-08-21T07:32:22;8.60;4.80;2.80
65556;PMS3003;52200;53.490;14.376;2022-08-21T07:34:47;10.00;6.00;3.00
65556;PMS3003;52200;53.490;14.376;2022-08-21T07:37:13;9.00;5.50;2.25
65556;PMS3003;52200;53.490;14.376;2022-08-21T07:39:38;7.50;3.25;2.00
65556;PMS3003;52200;53.490;14.376;2022-08-21T07:42:04;7.75;3.00;1.00
65556;PMS3003;52200;53.490;14.376;2022-08-21T07:44:29;11.25;5.50;3.00
65556;PMS3003;52200;53.490;14.376;2022-08-21T07:46:55;9.50;5.00;1.50
65556;PMS3003;52200;53.490;14.376;2022-08-21T07:49:20;9.75;4.25;2.25
65556;PMS3003;52200;53.490;14.376;2022-08-21T07:51:45;9.25;3.75;2.00
65556;PMS3003;52200;53.490;14.376;2022-08-21T07:54:11;8.25;3.00;2.00
65556;PMS3003;52200;53.490;14.376;2022-08-21T07:56:36;7.25;4.00;1.00
65556;PMS3003;52200;53.490;14.376;2022-08-21T07:59:02;9.25;4.00;2.00
65556;PMS3003;52200;53.490;14.376;2022-08-21T08:01:27;8.00;3.50;2.00
65556;PMS3003;52200;53.490;14.376;2022-08-21T08:03:53;8.20;3.80;1.00
65556;PMS3003;52200;53.490;14.376;2022-08-21T08:06:20;8.40;4.20;2.00
65556;PMS3003;52200;53.490;14.376;2022-08-21T08:08:45;7.00;3.00;2.00
65556;PMS3003;52200;53.490;14.376;2022-08-21T08:11:11;7.75;3.50;1.00
65556;PMS3003;52200;53.490;14.376;2022-08-21T08:13:40;7.20;3.60;1.80
65556;PMS3003;52200;53.490;14.376;2022-08-21T08:16:07;9.00;4.00;2.00
65556;PMS3003;52200;53.490;14.376;2022-08-21T08:18:33;9.50;5.00;1.75
65556;PMS3003;52200;53.490;14.376;2022-08-21T08:20:58;8.00;3.75;1.25
65556;PMS3003;52200;53.490;14.376;2022-08-21T08:23:24;6.00;3.00;1.00
65556;PMS3003;52200;53.490;14.376;2022-08-21T08:25:50;6.60;3.40;1.60
65556;PMS3003;52200;53.490;14.376;2022-08-21T08:28:16;8.00;3.25;1.75
65556;PMS3003;52200;53.490;14.376;2022-08-21T08:30:41;7.25;4.00;2.00
65556;PMS3003;52200;53.490;14.376;2022-08-21T08:33:07;8.80;4.00;1.40
65556;PMS3003;52200;53.490;14.376;2022-08-21T08:35:33;6.80;3.00;1.00
65556;PMS3003;52200;53.490;14.376;2022-08-21T08:37:58;9.00;3.75;1.00
65556;PMS3003;52200;53.490;14.376;2022-08-21T08:43:09;8.20;2.60;1.00
65556;PMS3003;52200;53.490;14.376;2022-08-21T08:45:36;5.80;2.60;1.60
65556;PMS3003;52200;53.490;14.376;2022-08-21T08:48:05;6.60;2.60;1.00
65556;PMS3003;52200;53.490;14.376;2022-08-21T08:50:44;7.00;2.00;1.00
65556;PMS3003;52200;53.490;14.376;2022-08-21T08:53:30;7.40;4.00;1.00
65556;PMS3003;52200;53.490;14.376;2022-08-21T08:56:02;7.60;2.20;1.00
65556;PMS3003;52200;53.490;14.376;2022-08-21T08:58:33;8.80;3.80;2.00
65556;PMS3003;52200;53.490;14.376;2022-08-21T09:01:05;7.00;2.80;1.00
65556;PMS3003;52200;53.490;14.376;2022-08-21T09:03:40;8.00;4.00;1.60
65556;PMS3003;52200;53.490;14.376;2022-08-21T09:11:51;7.40;3.00;1.60
65556;PMS3003;52200;53.490;14.376;2022-08-21T09:20:12;6.40;2.00;0.40
65556;PMS3003;52200;53.490;14.376;2022-08-21T09:25:39;7.00;3.80;1.40
65556;PMS3003;52200;53.490;14.376;2022-08-21T09:28:11;6.00;1.40;1.00
65556;PMS3003;52200;53.490;14.376;2022-08-21T09:30:39;5.40;1.80;1.00
65556;PMS3003;52200;53.490;14.376;2022-08-21T09:33:06;8.20;4.00;1.20
65556;PMS3003;52200;53.490;14.376;2022-08-21T09:35:32;7.00;2.20;1.00
65556;PMS3003;52200;53.490;14.376;2022-08-21T09:38:06;6.00;2.00;1.00
65556;PMS3003;52200;53.490;14.376;2022-08-21T09:43:04;6.00;2.00;0.40
65556;PMS3003;52200;53.490;14.376;2022-08-21T09:45:35;5.80;2.00;1.00
65556;PMS3003;52200;53.490;14.376;2022-08-21T09:48:17;5.40;1.60;0.00
65556;PMS3003;52200;53.490;14.376;2022-08-21T09:50:45;9.00;4.80;1.00
65556;PMS3003;52200;53.490;14.376;2022-08-21T09:53:22;6.20;2.00;0.80
65556;PMS3003;52200;53.490;14.376;2022-08-21T09:55:54;6.40;1.80;1.00
65556;PMS3003;52200;53.490;14.376;2022-08-21T09:58:41;5.00;2.00;1.00
65556;PMS3003;52200;53.490;14.376;2022-08-21T10:01:14;6.60;2.00;0.00
65556;PMS3003;52200;53.490;14.376;2022-08-21T10:03:43;7.00;2.00;0.20
65556;PMS3003;52200;53.490;14.376;2022-08-21T10:06:09;5.60;1.00;0.00
65556;PMS3003;52200;53.490;14.376;2022-08-21T10:08:45;5.40;1.80;0.00
65556;PMS3003;52200;53.490;14.376;2022-08-21T10:11:14;6.50;2.50;0.75
65556;PMS3003;52200;53.490;14.376;2022-08-21T10:16:48;6.00;1.00;0.00
65556;PMS3003;52200;53.490;14.376;2022-08-21T10:29:56;5.60;1.80;0.60
65556;PMS3003;52200;53.490;14.376;2022-08-21T10:32:51;4.00;0.80;0.00
65556;PMS3003;52200;53.490;14.376;2022-08-21T10:35:23;6.80;1.60;0.60
65556;PMS3003;52200;53.490;14.376;2022-08-21T10:38:03;5.80;1.00;0.00
65556;PMS3003;52200;53.490;14.376;2022-08-21T10:41:00;6.00;1.40;0.00
65556;PMS3003;52200;53.490;14.376;2022-08-21T10:43:52;6.20;1.40;0.00
65556;PMS3003;52200;53.490;14.376;2022-08-21T10:49:22;5.80;2.00;0.00
65556;PMS3003;52200;53.490;14.376;2022-08-21T10:52:14;5.00;2.00;0.00
65556;PMS3003;52200;53.490;14.376;2022-08-21T10:55:08;5.20;2.00;1.00
65556;PMS3003;52200;53.490;14.376;2022-08-21T11:00:23;5.00;2.00;0.00
65556;PMS3003;52200;53.490;14.376;2022-08-21T11:05:35;5.20;1.80;0.60
65556;PMS3003;52200;53.490;14.376;2022-08-21T11:08:08;5.80;2.00;1.00
65556;PMS3003;52200;53.490;14.376;2022-08-21T11:10:59;7.00;3.00;1.00
65556;PMS3003;52200;53.490;14.376;2022-08-21T11:16:13;3.80;0.00;0.00
65556;PMS3003;52200;53.490;14.376;2022-08-21T11:18:43;5.80;1.20;0.00
65556;PMS3003;52200;53.490;14.376;2022-08-21T11:29:51;5.80;2.00;1.00
65556;PMS3003;52200;53.490;14.376;2022-08-21T11:40:40;7.00;3.00;0.75
65556;PMS3003;52200;53.490;14.376;2022-08-21T11:43:52;7.60;3.00;1.00
65556;PMS3003;52200;53.490;14.376;2022-08-21T11:46:10;7.20;4.00;2.00
65556;PMS3003;52200;53.490;14.376;2022-08-21T11:51:46;5.00;1.20;1.00
65556;PMS3003;52200;53.490;14.376;2022-08-21T11:54:25;6.40;2.20;0.00
65556;PMS3003;52200;53.490;14.376;2022-08-21T11:57:03;6.00;2.00;1.00
65556;PMS3003;52200;53.490;14.376;2022-08-21T12:02:05;5.50;2.00;0.50
65556;PMS3003;52200;53.490;14.376;2022-08-21T12:04:42;6.00;2.00;0.00
65556;PMS3003;52200;53.490;14.376;2022-08-21T12:09:56;5.00;2.00;0.00
65556;PMS3003;52200;53.490;14.376;2022-08-21T12:12:34;6.00;2.00;0.00
65556;PMS3003;52200;53.490;14.376;2022-08-21T12:17:55;5.20;2.00;0.00
65556;PMS3003;52200;53.490;14.376;2022-08-21T12:22:53;6.25;3.00;0.75
65556;PMS3003;52200;53.490;14.376;2022-08-21T12:25:35;6.20;3.00;0.00
65556;PMS3003;52200;53.490;14.376;2022-08-21T12:28:10;8.20;4.00;2.00
65556;PMS3003;52200;53.490;14.376;2022-08-21T12:30:43;5.40;2.00;1.00
65556;PMS3003;52200;53.490;14.376;2022-08-21T12:33:22;7.00;4.00;1.20
65556;PMS3003;52200;53.490;14.376;2022-08-21T12:35:53;7.60;3.20;2.00
65556;PMS3003;52200;53.490;14.376;2022-08-21T12:38:57;8.20;4.00;1.00
65556;PMS3003;52200;53.490;14.376;2022-08-21T12:41:32;12.00;6.00;2.60
65556;PMS3003;52200;53.490;14.376;2022-08-21T12:44:10;7.80;3.80;2.00
65556;PMS3003;52200;53.490;14.376;2022-08-21T12:46:43;6.60;3.20;1.00
65556;PMS3003;52200;53.490;14.376;2022-08-21T12:49:14;8.00;4.40;2.20
65556;PMS3003;52200;53.490;14.376;2022-08-21T12:51:47;9.40;6.40;3.00
65556;PMS3003;52200;53.490;14.376;2022-08-21T12:54:27;7.00;3.40;1.00
65556;PMS3003;52200;53.490;14.376;2022-08-21T12:57:00;5.60;2.00;0.40
65556;PMS3003;52200;53.490;14.376;2022-08-21T12:59:28;6.00;2.00;0.80
65556;PMS3003;52200;53.490;14.376;2022-08-21T13:01:55;8.60;3.00;0.40
65556;PMS3003;52200;53.490;14.376;2022-08-21T13:04:41;6.00;1.00;0.00
65556;PMS3003;52200;53.490;14.376;2022-08-21T13:07:08;7.60;3.40;1.00
65556;PMS3003;52200;53.490;14.376;2022-08-21T13:09:41;6.00;1.20;0.00
65556;PMS3003;52200;53.490;14.376;2022-08-21T13:12:13;6.00;2.80;1.00
65556;PMS3003;52200;53.490;14.376;2022-08-21T13:14:41;6.00;2.00;1.00
65556;PMS3003;52200;53.490;14.376;2022-08-21T13:17:09;5.00;2.00;1.00
65556;PMS3003;52200;53.490;14.376;2022-08-21T13:19:37;8.00;3.80;1.00
65556;PMS3003;52200;53.490;14.376;2022-08-21T13:22:02;7.00;3.00;0.60
65556;PMS3003;52200;53.490;14.376;2022-08-21T13:24:30;6.00;2.60;1.00
65556;PMS3003;52200;53.490;14.376;2022-08-21T13:26:58;6.40;2.80;1.00
65556;PMS3003;52200;53.490;14.376;2022-08-21T13:29:28;4.75;1.50;0.75
65556;PMS3003;52200;53.490;14.376;2022-08-21T13:32:00;6.00;1.60;0.20
65556;PMS3003;52200;53.490;14.376;2022-08-21T13:34:34;6.20;2.20;0.40
65556;PMS3003;52200;53.490;14.376;2022-08-21T13:37:04;5.60;1.80;1.00
65556;PMS3003;52200;53.490;14.376;2022-08-21T13:39:32;8.00;2.20;1.00
65556;PMS3003;52200;53.490;14.376;2022-08-21T13:41:58;7.25;3.00;0.00
65556;PMS3003;52200;53.490;14.376;2022-08-21T13:46:55;6.20;2.00;1.00
65556;PMS3003;52200;53.490;14.376;2022-08-21T13:49:29;8.40;3.60;1.00
65556;PMS3003;52200;53.490;14.376;2022-08-21T13:51:59;5.60;2.20;1.00
65556;PMS3003;52200;53.490;14.376;2022-08-21T13:54:26;7.00;3.00;1.00
65556;PMS3003;52200;53.490;14.376;2022-08-21T13:57:02;5.20;1.80;0.20
65556;PMS3003;52200;53.490;14.376;2022-08-21T13:59:32;6.00;2.00;0.00
65556;PMS3003;52200;53.490;14.376;2022-08-21T14:02:01;6.00;2.40;0.20
65556;PMS3003;52200;53.490;14.376;2022-08-21T14:04:36;6.40;2.60;0.80
65556;PMS3003;52200;53.490;14.376;2022-08-21T14:07:16;5.00;1.80;0.60
65556;PMS3003;52200;53.490;14.376;2022-08-21T14:09:44;7.00;3.00;1.00
65556;PMS3003;52200;53.490;14.376;2022-08-21T14:12:15;6.00;2.40;0.00
65556;PMS3003;52200;53.490;14.376;2022-08-21T14:14:44;6.40;2.60;1.00
65556;PMS3003;52200;53.490;14.376;2022-08-21T14:17:13;5.40;2.00;0.00
65556;PMS3003;52200;53.490;14.376;2022-08-21T14:19:51;7.40;2.80;1.00
65556;PMS3003;52200;53.490;14.376;2022-08-21T14:22:27;6.25;2.25;0.75
65556;PMS3003;52200;53.490;14.376;2022-08-21T14:25:08;5.60;2.00;0.00
65556;PMS3003;52200;53.490;14.376;2022-08-21T14:27:51;5.00;1.00;0.40
65556;PMS3003;52200;53.490;14.376;2022-08-21T14:32:58;5.00;2.00;1.00
65556;PMS3003;52200;53.490;14.376;2022-08-21T14:35:24;5.60;2.20;1.00
65556;PMS3003;52200;53.490;14.376;2022-08-21T14:37:50;7.40;1.20;0.00
65556;PMS3003;52200;53.490;14.376;2022-08-21T14:40:17;5.40;2.00;1.00
65556;PMS3003;52200;53.490;14.376;2022-08-21T14:42:44;8.00;1.60;0.00
65556;PMS3003;52200;53.490;14.376;2022-08-21T14:45:14;6.40;2.40;0.00
65556;PMS3003;52200;53.490;14.376;2022-08-21T14:47:42;6.80;3.00;0.80
65556;PMS3003;52200;53.490;14.376;2022-08-21T14:50:09;5.75;2.00;0.00
65556;PMS3003;52200;53.490;14.376;2022-08-21T14:52:35;7.00;2.80;1.00
65556;PMS3003;52200;53.490;14.376;2022-08-21T14:55:01;5.00;1.40;0.40
65556;PMS3003;52200;53.490;14.376;2022-08-21T14:57:27;6.20;2.00;0.60
65556;PMS3003;52200;53.490;14.376;2022-08-21T14:59:55;6.20;2.00;1.00
65556;PMS3003;52200;53.490;14.376;2022-08-21T15:02:21;5.75;1.75;0.00
65556;PMS3003;52200;53.490;14.376;2022-08-21T15:04:46;6.25;2.00;0.25
65556;PMS3003;52200;53.490;14.376;2022-08-21T15:07:11;6.75;3.00;0.75
65556;PMS3003;52200;53.490;14.376;2022-08-21T15:09:37;8.00;4.50;1.25
65556;PMS3003;52200;53.490;14.376;2022-08-21T15:12:03;6.00;2.25;0.75
65556;PMS3003;52200;53.490;14.376;2022-08-21T15:14:30;6.00;3.00;1.00
65556;PMS3003;52200;53.490;14.376;2022-08-21T15:16:59;6.40;2.80;1.00
65556;PMS3003;52200;53.490;14.376;2022-08-21T15:19:25;6.00;2.00;1.00
65556;PMS3003;52200;53.490;14.376;2022-08-21T15:21:51;7.00;3.00;1.75
65556;PMS3003;52200;53.490;14.376;2022-08-21T15:24:16;7.00;4.00;2.00
65556;PMS3003;52200;53.490;14.376;2022-08-21T15:26:42;7.00;3.00;1.00
65556;PMS3003;52200;53.490;14.376;2022-08-21T15:29:09;6.60;2.00;0.60
65556;PMS3003;52200;53.490;14.376;2022-08-21T15:31:35;6.75;2.00;1.00
65556;PMS3003;52200;53.490;14.376;2022-08-21T15:34:01;8.00;3.00;0.20
65556;PMS3003;52200;53.490;14.376;2022-08-21T15:36:27;6.20;2.00;0.80
65556;PMS3003;52200;53.490;14.376;2022-08-21T15:38:52;7.00;2.25;1.00